sensor_id;sensor_type;location;lat;lon;timestamp;P1;durP1;ratioP1;P2;durP2;ratioP2
55758;SDS011;41678;52.126;20.664;2022-12-07T00:03:24;50.58;;;21.67;;
55758;SDS011;41678;52.126;20.664;2022-12-07T00:08:44;43.17;;;17.08;;
55758;SDS011;41678;52.126;20.664;2022-12-07T00:14:06;36.17;;;14.27;;
55758;SDS011;41678;52.126;20.664;2022-12-07T00:24:46;27.10;;;11.35;;
55758;SDS011;41678;52.126;20.664;2022-12-07T00:30:06;13.50;;;6.28;;
55758;SDS011;41678;52.126;20.664;2022-12-07T00:35:25;18.85;;;8.40;;
55758;SDS011;41678;52.126;20.664;2022-12-07T00:40:53;15.90;;;6.93;;
55758;SDS011;41678;52.126;20.664;2022-12-07T00:46:14;16.35;;;5.75;;
55758;SDS011;41678;52.126;20.664;2022-12-07T00:51:34;24.85;;;6.30;;
55758;SDS011;41678;52.126;20.664;2022-12-07T00:56:53;16.02;;;7.47;;
55758;SDS011;41678;52.126;20.664;2022-12-07T01:02:13;13.18;;;6.80;;
55758;SDS011;41678;52.126;20.664;2022-12-07T01:07:32;16.35;;;5.95;;
55758;SDS011;41678;52.126;20.664;2022-12-07T01:12:52;20.02;;;7.20;;
55758;SDS011;41678;52.126;20.664;2022-12-07T01:18:12;23.83;;;7.72;;
55758;SDS011;41678;52.126;20.664;2022-12-07T01:23:31;16.67;;;6.80;;
55758;SDS011;41678;52.126;20.664;2022-12-07T01:28:53;13.53;;;5.27;;
55758;SDS011;41678;52.126;20.664;2022-12-07T01:34:14;15.07;;;5.80;;
55758;SDS011;41678;52.126;20.664;2022-12-07T01:39:33;19.60;;;6.40;;
55758;SDS011;41678;52.126;20.664;2022-12-07T01:50:37;16.00;;;7.45;;
55758;SDS011;41678;52.126;20.664;2022-12-07T01:55:59;15.55;;;8.27;;
55758;SDS011;41678;52.126;20.664;2022-12-07T02:01:19;15.38;;;6.10;;
55758;SDS011;41678;52.126;20.664;2022-12-07T02:06:39;16.05;;;5.22;;
55758;SDS011;41678;52.126;20.664;2022-12-07T02:12:01;8.07;;;4.45;;
55758;SDS011;41678;52.126;20.664;2022-12-07T02:17:32;10.48;;;4.13;;
55758;SDS011;41678;52.126;20.664;2022-12-07T02:29:03;9.70;;;4.13;;
55758;SDS011;41678;52.126;20.664;2022-12-07T02:34:39;9.15;;;3.55;;
55758;SDS011;41678;52.126;20.664;2022-12-07T02:40:15;11.98;;;4.70;;
55758;SDS011;41678;52.126;20.664;2022-12-07T02:45:40;14.27;;;5.18;;
55758;SDS011;41678;52.126;20.664;2022-12-07T02:51:01;9.57;;;4.20;;
55758;SDS011;41678;52.126;20.664;2022-12-07T02:56:43;9.40;;;4.35;;
55758;SDS011;41678;52.126;20.664;2022-12-07T03:19:09;8.03;;;3.70;;
55758;SDS011;41678;52.126;20.664;2022-12-07T03:24:36;11.65;;;3.97;;
55758;SDS011;41678;52.126;20.664;2022-12-07T03:30:12;11.60;;;4.75;;
55758;SDS011;41678;52.126;20.664;2022-12-07T03:35:48;11.00;;;4.80;;
55758;SDS011;41678;52.126;20.664;2022-12-07T03:41:31;17.38;;;5.53;;
55758;SDS011;41678;52.126;20.664;2022-12-07T03:52:45;11.60;;;4.53;;
55758;SDS011;41678;52.126;20.664;2022-12-07T03:58:16;9.70;;;4.68;;
55758;SDS011;41678;52.126;20.664;2022-12-07T04:03:38;10.80;;;4.90;;
55758;SDS011;41678;52.126;20.664;2022-12-07T04:08:57;10.75;;;5.25;;
55758;SDS011;41678;52.126;20.664;2022-12-07T04:14:17;10.88;;;4.68;;
55758;SDS011;41678;52.126;20.664;2022-12-07T04:19:39;13.60;;;5.75;;
55758;SDS011;41678;52.126;20.664;2022-12-07T04:24:59;15.48;;;6.00;;
55758;SDS011;41678;52.126;20.664;2022-12-07T04:30:19;12.95;;;5.75;;
55758;SDS011;41678;52.126;20.664;2022-12-07T04:35:39;10.38;;;5.30;;
55758;SDS011;41678;52.126;20.664;2022-12-07T04:41:03;13.02;;;4.90;;
55758;SDS011;41678;52.126;20.664;2022-12-07T04:46:24;13.93;;;6.20;;
55758;SDS011;41678;52.126;20.664;2022-12-07T04:51:45;10.57;;;4.20;;
55758;SDS011;41678;52.126;20.664;2022-12-07T04:57:06;21.00;;;6.85;;
55758;SDS011;41678;52.126;20.664;2022-12-07T05:02:25;13.65;;;6.07;;
55758;SDS011;41678;52.126;20.664;2022-12-07T05:07:45;11.57;;;5.15;;
55758;SDS011;41678;52.126;20.664;2022-12-07T05:13:04;13.80;;;5.38;;
55758;SDS011;41678;52.126;20.664;2022-12-07T05:18:24;15.13;;;6.13;;
55758;SDS011;41678;52.126;20.664;2022-12-07T05:23:43;12.25;;;5.53;;
55758;SDS011;41678;52.126;20.664;2022-12-07T05:29:03;15.90;;;5.95;;
55758;SDS011;41678;52.126;20.664;2022-12-07T05:34:23;16.77;;;4.80;;
55758;SDS011;41678;52.126;20.664;2022-12-07T05:39:42;11.13;;;4.85;;
55758;SDS011;41678;52.126;20.664;2022-12-07T05:45:03;12.85;;;6.45;;
55758;SDS011;41678;52.126;20.664;2022-12-07T05:50:23;12.40;;;6.78;;
55758;SDS011;41678;52.126;20.664;2022-12-07T05:55:53;17.42;;;6.10;;
55758;SDS011;41678;52.126;20.664;2022-12-07T06:01:13;17.73;;;7.47;;
55758;SDS011;41678;52.126;20.664;2022-12-07T06:06:33;16.77;;;6.85;;
55758;SDS011;41678;52.126;20.664;2022-12-07T06:11:53;14.95;;;6.82;;
55758;SDS011;41678;52.126;20.664;2022-12-07T06:17:32;15.68;;;7.63;;
55758;SDS011;41678;52.126;20.664;2022-12-07T06:22:51;23.20;;;7.88;;
55758;SDS011;41678;52.126;20.664;2022-12-07T06:28:10;12.20;;;7.10;;
55758;SDS011;41678;52.126;20.664;2022-12-07T06:33:30;16.98;;;8.32;;
55758;SDS011;41678;52.126;20.664;2022-12-07T06:38:50;13.30;;;6.10;;
55758;SDS011;41678;52.126;20.664;2022-12-07T06:44:10;15.10;;;7.85;;
55758;SDS011;41678;52.126;20.664;2022-12-07T06:49:30;17.23;;;7.50;;
55758;SDS011;41678;52.126;20.664;2022-12-07T06:54:49;19.55;;;6.38;;
55758;SDS011;41678;52.126;20.664;2022-12-07T07:00:09;15.35;;;6.70;;
55758;SDS011;41678;52.126;20.664;2022-12-07T07:05:29;13.57;;;5.80;;
55758;SDS011;41678;52.126;20.664;2022-12-07T07:10:49;17.20;;;7.10;;
55758;SDS011;41678;52.126;20.664;2022-12-07T07:16:09;22.73;;;10.30;;
55758;SDS011;41678;52.126;20.664;2022-12-07T07:21:28;13.98;;;6.90;;
55758;SDS011;41678;52.126;20.664;2022-12-07T07:26:48;13.90;;;7.25;;
55758;SDS011;41678;52.126;20.664;2022-12-07T07:32:07;14.52;;;5.75;;
55758;SDS011;41678;52.126;20.664;2022-12-07T07:37:27;12.32;;;5.65;;
55758;SDS011;41678;52.126;20.664;2022-12-07T07:42:47;17.30;;;6.45;;
55758;SDS011;41678;52.126;20.664;2022-12-07T07:48:08;15.20;;;6.00;;
55758;SDS011;41678;52.126;20.664;2022-12-07T07:53:27;11.95;;;6.05;;
55758;SDS011;41678;52.126;20.664;2022-12-07T07:58:47;16.83;;;6.90;;
55758;SDS011;41678;52.126;20.664;2022-12-07T08:04:10;14.18;;;5.97;;
55758;SDS011;41678;52.126;20.664;2022-12-07T08:09:30;18.38;;;6.35;;
55758;SDS011;41678;52.126;20.664;2022-12-07T08:14:49;13.73;;;7.18;;
55758;SDS011;41678;52.126;20.664;2022-12-07T08:20:08;17.83;;;6.75;;
55758;SDS011;41678;52.126;20.664;2022-12-07T08:25:28;16.45;;;7.95;;
55758;SDS011;41678;52.126;20.664;2022-12-07T08:30:48;15.60;;;7.00;;
55758;SDS011;41678;52.126;20.664;2022-12-07T08:36:08;17.25;;;6.50;;
55758;SDS011;41678;52.126;20.664;2022-12-07T08:41:32;16.50;;;7.53;;
55758;SDS011;41678;52.126;20.664;2022-12-07T08:46:53;10.75;;;5.85;;
55758;SDS011;41678;52.126;20.664;2022-12-07T08:52:16;15.48;;;8.18;;
55758;SDS011;41678;52.126;20.664;2022-12-07T08:57:36;20.55;;;8.93;;
55758;SDS011;41678;52.126;20.664;2022-12-07T09:02:57;18.48;;;8.68;;
55758;SDS011;41678;52.126;20.664;2022-12-07T09:08:17;26.27;;;7.95;;
55758;SDS011;41678;52.126;20.664;2022-12-07T09:13:36;15.63;;;6.57;;
55758;SDS011;41678;52.126;20.664;2022-12-07T09:18:56;27.50;;;7.30;;
55758;SDS011;41678;52.126;20.664;2022-12-07T09:24:16;30.58;;;9.68;;
55758;SDS011;41678;52.126;20.664;2022-12-07T09:29:35;13.88;;;7.18;;
55758;SDS011;41678;52.126;20.664;2022-12-07T09:34:55;16.45;;;7.47;;
55758;SDS011;41678;52.126;20.664;2022-12-07T09:40:15;18.10;;;7.10;;
55758;SDS011;41678;52.126;20.664;2022-12-07T09:45:37;13.82;;;6.35;;
55758;SDS011;41678;52.126;20.664;2022-12-07T09:50:58;16.38;;;6.00;;
55758;SDS011;41678;52.126;20.664;2022-12-07T09:56:20;30.17;;;8.52;;
55758;SDS011;41678;52.126;20.664;2022-12-07T10:01:41;16.23;;;7.87;;
55758;SDS011;41678;52.126;20.664;2022-12-07T10:07:00;23.15;;;9.20;;
55758;SDS011;41678;52.126;20.664;2022-12-07T10:12:20;21.58;;;9.10;;
55758;SDS011;41678;52.126;20.664;2022-12-07T10:17:41;9.73;;;4.90;;
55758;SDS011;41678;52.126;20.664;2022-12-07T10:23:14;10.10;;;4.60;;
55758;SDS011;41678;52.126;20.664;2022-12-07T10:28:35;19.50;;;9.35;;
55758;SDS011;41678;52.126;20.664;2022-12-07T10:33:56;14.73;;;7.28;;
55758;SDS011;41678;52.126;20.664;2022-12-07T10:39:22;14.13;;;6.70;;
55758;SDS011;41678;52.126;20.664;2022-12-07T10:44:42;11.07;;;4.68;;
55758;SDS011;41678;52.126;20.664;2022-12-07T11:01:13;19.40;;;8.65;;
55758;SDS011;41678;52.126;20.664;2022-12-07T11:06:58;12.00;;;6.25;;
55758;SDS011;41678;52.126;20.664;2022-12-07T11:24:02;19.10;;;8.60;;
55758;SDS011;41678;52.126;20.664;2022-12-07T11:29:52;17.35;;;7.47;;
55758;SDS011;41678;52.126;20.664;2022-12-07T11:40:36;16.20;;;6.63;;
55758;SDS011;41678;52.126;20.664;2022-12-07T11:46:00;19.77;;;8.65;;
55758;SDS011;41678;52.126;20.664;2022-12-07T11:51:25;27.38;;;9.43;;
55758;SDS011;41678;52.126;20.664;2022-12-07T11:56:45;49.65;;;12.20;;
55758;SDS011;41678;52.126;20.664;2022-12-07T12:02:12;26.27;;;10.73;;
55758;SDS011;41678;52.126;20.664;2022-12-07T12:07:34;20.30;;;8.13;;
55758;SDS011;41678;52.126;20.664;2022-12-07T12:19:23;20.58;;;7.68;;
55758;SDS011;41678;52.126;20.664;2022-12-07T12:24:44;15.32;;;7.78;;
55758;SDS011;41678;52.126;20.664;2022-12-07T12:30:23;19.88;;;9.48;;
55758;SDS011;41678;52.126;20.664;2022-12-07T12:35:44;20.92;;;8.45;;
55758;SDS011;41678;52.126;20.664;2022-12-07T12:41:04;19.58;;;6.78;;
55758;SDS011;41678;52.126;20.664;2022-12-07T12:51:53;22.98;;;7.80;;
55758;SDS011;41678;52.126;20.664;2022-12-07T12:57:25;8.07;;;3.60;;
55758;SDS011;41678;52.126;20.664;2022-12-07T13:02:51;13.52;;;7.65;;
55758;SDS011;41678;52.126;20.664;2022-12-07T13:08:21;17.90;;;7.18;;
55758;SDS011;41678;52.126;20.664;2022-12-07T13:13:44;17.92;;;7.07;;
55758;SDS011;41678;52.126;20.664;2022-12-07T13:19:26;11.27;;;5.43;;
55758;SDS011;41678;52.126;20.664;2022-12-07T13:30:55;13.32;;;5.75;;
55758;SDS011;41678;52.126;20.664;2022-12-07T13:36:55;16.00;;;5.13;;
55758;SDS011;41678;52.126;20.664;2022-12-07T13:42:12;18.52;;;9.98;;
55758;SDS011;41678;52.126;20.664;2022-12-07T13:47:41;20.10;;;9.25;;
55758;SDS011;41678;52.126;20.664;2022-12-07T13:53:11;17.95;;;6.78;;
55758;SDS011;41678;52.126;20.664;2022-12-07T13:58:33;17.35;;;9.13;;
55758;SDS011;41678;52.126;20.664;2022-12-07T14:03:53;18.17;;;9.57;;
55758;SDS011;41678;52.126;20.664;2022-12-07T14:09:21;21.05;;;8.50;;
55758;SDS011;41678;52.126;20.664;2022-12-07T14:14:45;19.63;;;9.52;;
55758;SDS011;41678;52.126;20.664;2022-12-07T14:20:28;15.98;;;7.72;;
55758;SDS011;41678;52.126;20.664;2022-12-07T14:25:49;26.08;;;10.48;;
55758;SDS011;41678;52.126;20.664;2022-12-07T14:31:11;18.63;;;8.65;;
55758;SDS011;41678;52.126;20.664;2022-12-07T14:36:36;25.30;;;9.48;;
55758;SDS011;41678;52.126;20.664;2022-12-07T14:41:56;22.33;;;9.73;;
55758;SDS011;41678;52.126;20.664;2022-12-07T14:47:16;21.15;;;8.23;;
55758;SDS011;41678;52.126;20.664;2022-12-07T14:52:35;13.43;;;6.20;;
55758;SDS011;41678;52.126;20.664;2022-12-07T14:57:55;18.60;;;7.35;;
55758;SDS011;41678;52.126;20.664;2022-12-07T15:03:16;14.70;;;7.00;;
55758;SDS011;41678;52.126;20.664;2022-12-07T15:08:36;16.85;;;8.00;;
55758;SDS011;41678;52.126;20.664;2022-12-07T15:13:55;12.60;;;6.38;;
55758;SDS011;41678;52.126;20.664;2022-12-07T15:19:27;13.20;;;7.20;;
55758;SDS011;41678;52.126;20.664;2022-12-07T15:24:47;12.65;;;5.47;;
55758;SDS011;41678;52.126;20.664;2022-12-07T15:30:06;15.68;;;6.57;;
55758;SDS011;41678;52.126;20.664;2022-12-07T15:35:27;15.98;;;8.05;;
55758;SDS011;41678;52.126;20.664;2022-12-07T15:40:47;12.65;;;5.50;;
55758;SDS011;41678;52.126;20.664;2022-12-07T15:46:07;21.42;;;6.72;;
55758;SDS011;41678;52.126;20.664;2022-12-07T15:51:27;17.17;;;8.90;;
55758;SDS011;41678;52.126;20.664;2022-12-07T15:56:47;18.08;;;7.97;;
55758;SDS011;41678;52.126;20.664;2022-12-07T16:02:08;26.80;;;11.93;;
55758;SDS011;41678;52.126;20.664;2022-12-07T16:07:29;20.10;;;8.82;;
55758;SDS011;41678;52.126;20.664;2022-12-07T16:12:49;32.50;;;12.73;;
55758;SDS011;41678;52.126;20.664;2022-12-07T16:18:09;36.28;;;17.77;;
55758;SDS011;41678;52.126;20.664;2022-12-07T16:23:29;15.25;;;8.25;;
55758;SDS011;41678;52.126;20.664;2022-12-07T16:28:49;25.75;;;11.93;;
55758;SDS011;41678;52.126;20.664;2022-12-07T16:34:10;19.27;;;8.65;;
55758;SDS011;41678;52.126;20.664;2022-12-07T16:39:31;20.48;;;8.57;;
55758;SDS011;41678;52.126;20.664;2022-12-07T16:44:52;17.33;;;8.98;;
55758;SDS011;41678;52.126;20.664;2022-12-07T16:50:12;25.88;;;10.60;;
55758;SDS011;41678;52.126;20.664;2022-12-07T16:55:31;27.80;;;9.35;;
55758;SDS011;41678;52.126;20.664;2022-12-07T17:00:55;20.85;;;9.40;;
55758;SDS011;41678;52.126;20.664;2022-12-07T17:06:16;18.58;;;9.02;;
55758;SDS011;41678;52.126;20.664;2022-12-07T17:11:37;23.92;;;9.38;;
55758;SDS011;41678;52.126;20.664;2022-12-07T17:16:57;31.48;;;14.57;;
55758;SDS011;41678;52.126;20.664;2022-12-07T17:22:16;28.20;;;8.40;;
55758;SDS011;41678;52.126;20.664;2022-12-07T17:27:36;22.45;;;10.32;;
55758;SDS011;41678;52.126;20.664;2022-12-07T17:32:57;27.37;;;9.50;;
55758;SDS011;41678;52.126;20.664;2022-12-07T17:38:16;27.77;;;9.77;;
55758;SDS011;41678;52.126;20.664;2022-12-07T17:43:36;24.33;;;10.18;;
55758;SDS011;41678;52.126;20.664;2022-12-07T17:48:56;18.27;;;8.70;;
55758;SDS011;41678;52.126;20.664;2022-12-07T17:54:16;19.73;;;9.05;;
55758;SDS011;41678;52.126;20.664;2022-12-07T17:59:37;17.10;;;8.48;;
55758;SDS011;41678;52.126;20.664;2022-12-07T18:04:57;19.20;;;8.88;;
55758;SDS011;41678;52.126;20.664;2022-12-07T18:10:17;25.30;;;9.25;;
55758;SDS011;41678;52.126;20.664;2022-12-07T18:15:36;14.27;;;7.13;;
55758;SDS011;41678;52.126;20.664;2022-12-07T18:20:56;18.88;;;7.55;;
55758;SDS011;41678;52.126;20.664;2022-12-07T18:26:18;12.55;;;5.55;;
55758;SDS011;41678;52.126;20.664;2022-12-07T18:31:39;20.17;;;8.05;;
55758;SDS011;41678;52.126;20.664;2022-12-07T18:36:59;11.25;;;4.65;;
55758;SDS011;41678;52.126;20.664;2022-12-07T18:42:19;12.90;;;5.70;;
55758;SDS011;41678;52.126;20.664;2022-12-07T18:47:39;12.40;;;6.13;;
55758;SDS011;41678;52.126;20.664;2022-12-07T18:52:59;8.02;;;3.75;;
55758;SDS011;41678;52.126;20.664;2022-12-07T18:58:21;14.18;;;6.85;;
55758;SDS011;41678;52.126;20.664;2022-12-07T19:03:40;9.93;;;5.43;;
55758;SDS011;41678;52.126;20.664;2022-12-07T19:09:00;10.57;;;4.75;;
55758;SDS011;41678;52.126;20.664;2022-12-07T19:19:43;9.13;;;4.32;;
55758;SDS011;41678;52.126;20.664;2022-12-07T19:25:06;16.55;;;6.15;;
55758;SDS011;41678;52.126;20.664;2022-12-07T19:30:26;9.45;;;4.88;;
55758;SDS011;41678;52.126;20.664;2022-12-07T19:35:45;7.85;;;3.13;;
55758;SDS011;41678;52.126;20.664;2022-12-07T19:46:56;10.88;;;5.20;;
55758;SDS011;41678;52.126;20.664;2022-12-07T19:52:18;11.75;;;5.85;;
55758;SDS011;41678;52.126;20.664;2022-12-07T19:57:39;12.57;;;3.83;;
55758;SDS011;41678;52.126;20.664;2022-12-07T20:02:59;15.10;;;6.03;;
55758;SDS011;41678;52.126;20.664;2022-12-07T20:08:18;8.45;;;3.85;;
55758;SDS011;41678;52.126;20.664;2022-12-07T20:13:39;14.02;;;5.15;;
55758;SDS011;41678;52.126;20.664;2022-12-07T20:18:58;15.48;;;5.72;;
55758;SDS011;41678;52.126;20.664;2022-12-07T20:24:20;19.33;;;10.88;;
55758;SDS011;41678;52.126;20.664;2022-12-07T20:29:41;11.35;;;4.63;;
55758;SDS011;41678;52.126;20.664;2022-12-07T20:35:01;7.75;;;3.15;;
55758;SDS011;41678;52.126;20.664;2022-12-07T20:40:21;13.60;;;4.40;;
55758;SDS011;41678;52.126;20.664;2022-12-07T20:45:47;9.40;;;3.58;;
55758;SDS011;41678;52.126;20.664;2022-12-07T20:51:08;13.65;;;4.30;;
55758;SDS011;41678;52.126;20.664;2022-12-07T20:56:29;21.85;;;5.50;;
55758;SDS011;41678;52.126;20.664;2022-12-07T21:01:50;9.93;;;4.57;;
55758;SDS011;41678;52.126;20.664;2022-12-07T21:07:10;16.83;;;5.78;;
55758;SDS011;41678;52.126;20.664;2022-12-07T21:12:29;11.95;;;4.85;;
55758;SDS011;41678;52.126;20.664;2022-12-07T21:17:49;9.50;;;3.70;;
55758;SDS011;41678;52.126;20.664;2022-12-07T21:23:08;14.02;;;6.13;;
55758;SDS011;41678;52.126;20.664;2022-12-07T21:28:28;16.48;;;4.95;;
55758;SDS011;41678;52.126;20.664;2022-12-07T21:33:49;10.57;;;4.95;;
55758;SDS011;41678;52.126;20.664;2022-12-07T21:39:09;7.28;;;3.72;;
55758;SDS011;41678;52.126;20.664;2022-12-07T21:44:28;8.57;;;3.05;;
55758;SDS011;41678;52.126;20.664;2022-12-07T21:49:48;8.23;;;3.42;;
55758;SDS011;41678;52.126;20.664;2022-12-07T21:55:07;13.75;;;4.15;;
55758;SDS011;41678;52.126;20.664;2022-12-07T22:00:27;9.00;;;3.03;;
55758;SDS011;41678;52.126;20.664;2022-12-07T22:05:47;10.25;;;2.47;;
55758;SDS011;41678;52.126;20.664;2022-12-07T22:11:07;19.77;;;4.45;;
55758;SDS011;41678;52.126;20.664;2022-12-07T22:16:27;4.97;;;2.80;;
55758;SDS011;41678;52.126;20.664;2022-12-07T22:21:47;31.75;;;6.10;;
55758;SDS011;41678;52.126;20.664;2022-12-07T22:27:07;11.95;;;3.80;;
55758;SDS011;41678;52.126;20.664;2022-12-07T22:32:27;9.93;;;4.38;;
55758;SDS011;41678;52.126;20.664;2022-12-07T22:37:47;9.38;;;3.63;;
55758;SDS011;41678;52.126;20.664;2022-12-07T22:43:06;9.07;;;4.35;;
55758;SDS011;41678;52.126;20.664;2022-12-07T22:48:26;9.85;;;3.35;;
55758;SDS011;41678;52.126;20.664;2022-12-07T22:53:46;7.78;;;2.97;;
55758;SDS011;41678;52.126;20.664;2022-12-07T22:59:07;12.40;;;4.75;;
55758;SDS011;41678;52.126;20.664;2022-12-07T23:04:27;7.28;;;2.92;;
55758;SDS011;41678;52.126;20.664;2022-12-07T23:09:46;9.15;;;3.90;;
55758;SDS011;41678;52.126;20.664;2022-12-07T23:15:06;8.43;;;3.78;;
55758;SDS011;41678;52.126;20.664;2022-12-07T23:20:26;7.53;;;3.67;;
55758;SDS011;41678;52.126;20.664;2022-12-07T23:25:46;8.63;;;2.95;;
55758;SDS011;41678;52.126;20.664;2022-12-07T23:31:12;7.75;;;3.53;;
55758;SDS011;41678;52.126;20.664;2022-12-07T23:36:33;15.10;;;3.05;;
55758;SDS011;41678;52.126;20.664;2022-12-07T23:41:53;7.10;;;3.28;;
55758;SDS011;41678;52.126;20.664;2022-12-07T23:47:13;7.97;;;1.95;;
55758;SDS011;41678;52.126;20.664;2022-12-07T23:52:32;4.82;;;1.65;;
55758;SDS011;41678;52.126;20.664;2022-12-07T23:57:52;2.70;;;1.27;;
